sensor_id;sensor_type;location;lat;lon;timestamp;P1;durP1;ratioP1;P2;durP2;ratioP2
23181;SDS011;11759;51.282;6.642;2023-11-21T00:02:17;27.35;;;11.23;;
23181;SDS011;11759;51.282;6.642;2023-11-21T00:04:44;27.67;;;10.52;;
23181;SDS011;11759;51.282;6.642;2023-11-21T00:07:11;27.73;;;9.60;;
23181;SDS011;11759;51.282;6.642;2023-11-21T00:09:38;19.92;;;9.05;;
23181;SDS011;11759;51.282;6.642;2023-11-21T00:12:04;31.50;;;10.55;;
23181;SDS011;11759;51.282;6.642;2023-11-21T00:14:32;23.02;;;11.32;;
23181;SDS011;11759;51.282;6.642;2023-11-21T00:16:59;34.17;;;11.60;;
23181;SDS011;11759;51.282;6.642;2023-11-21T00:19:26;30.35;;;11.57;;
23181;SDS011;11759;51.282;6.642;2023-11-21T00:21:52;32.08;;;11.75;;
23181;SDS011;11759;51.282;6.642;2023-11-21T00:24:19;32.00;;;12.07;;
23181;SDS011;11759;51.282;6.642;2023-11-21T00:26:46;23.38;;;10.43;;
23181;SDS011;11759;51.282;6.642;2023-11-21T00:29:15;30.52;;;11.50;;
23181;SDS011;11759;51.282;6.642;2023-11-21T00:31:44;26.27;;;12.07;;
23181;SDS011;11759;51.282;6.642;2023-11-21T00:34:11;23.65;;;12.00;;
23181;SDS011;11759;51.282;6.642;2023-11-21T00:36:38;26.73;;;11.65;;
23181;SDS011;11759;51.282;6.642;2023-11-21T00:39:05;28.83;;;11.05;;
23181;SDS011;11759;51.282;6.642;2023-11-21T00:41:33;25.75;;;11.85;;
23181;SDS011;11759;51.282;6.642;2023-11-21T00:44:00;28.63;;;11.80;;
23181;SDS011;11759;51.282;6.642;2023-11-21T00:46:27;27.50;;;11.48;;
23181;SDS011;11759;51.282;6.642;2023-11-21T00:48:55;25.20;;;11.95;;
23181;SDS011;11759;51.282;6.642;2023-11-21T00:51:24;29.00;;;12.60;;
23181;SDS011;11759;51.282;6.642;2023-11-21T00:53:51;26.40;;;12.32;;
23181;SDS011;11759;51.282;6.642;2023-11-21T00:56:18;33.25;;;12.63;;
23181;SDS011;11759;51.282;6.642;2023-11-21T00:58:45;33.88;;;13.35;;
23181;SDS011;11759;51.282;6.642;2023-11-21T01:01:16;24.38;;;12.23;;
23181;SDS011;11759;51.282;6.642;2023-11-21T01:03:43;27.65;;;13.43;;
23181;SDS011;11759;51.282;6.642;2023-11-21T01:06:10;29.15;;;13.18;;
23181;SDS011;11759;51.282;6.642;2023-11-21T01:08:40;28.75;;;12.60;;
23181;SDS011;11759;51.282;6.642;2023-11-21T01:11:11;34.10;;;13.38;;
23181;SDS011;11759;51.282;6.642;2023-11-21T01:13:42;45.33;;;14.88;;
23181;SDS011;11759;51.282;6.642;2023-11-21T01:16:08;30.65;;;13.93;;
23181;SDS011;11759;51.282;6.642;2023-11-21T01:18:35;35.08;;;15.45;;
23181;SDS011;11759;51.282;6.642;2023-11-21T01:21:02;32.72;;;16.45;;
23181;SDS011;11759;51.282;6.642;2023-11-21T01:23:30;39.75;;;16.52;;
23181;SDS011;11759;51.282;6.642;2023-11-21T01:25:56;38.83;;;16.67;;
23181;SDS011;11759;51.282;6.642;2023-11-21T01:28:25;37.60;;;17.20;;
23181;SDS011;11759;51.282;6.642;2023-11-21T01:30:52;46.75;;;19.05;;
23181;SDS011;11759;51.282;6.642;2023-11-21T01:33:23;53.28;;;20.60;;
23181;SDS011;11759;51.282;6.642;2023-11-21T01:35:53;53.30;;;18.38;;
23181;SDS011;11759;51.282;6.642;2023-11-21T01:38:21;51.33;;;20.20;;
23181;SDS011;11759;51.282;6.642;2023-11-21T01:40:48;52.38;;;19.83;;
23181;SDS011;11759;51.282;6.642;2023-11-21T01:43:15;53.53;;;21.65;;
23181;SDS011;11759;51.282;6.642;2023-11-21T01:45:43;56.95;;;21.75;;
23181;SDS011;11759;51.282;6.642;2023-11-21T01:48:12;65.55;;;20.60;;
23181;SDS011;11759;51.282;6.642;2023-11-21T01:50:41;44.90;;;20.17;;
23181;SDS011;11759;51.282;6.642;2023-11-21T01:53:10;49.53;;;19.63;;
23181;SDS011;11759;51.282;6.642;2023-11-21T01:55:40;59.17;;;21.67;;
23181;SDS011;11759;51.282;6.642;2023-11-21T01:58:08;55.88;;;20.48;;
23181;SDS011;11759;51.282;6.642;2023-11-21T02:00:35;50.25;;;20.77;;
23181;SDS011;11759;51.282;6.642;2023-11-21T02:03:01;48.10;;;21.77;;
23181;SDS011;11759;51.282;6.642;2023-11-21T02:05:29;51.78;;;20.65;;
23181;SDS011;11759;51.282;6.642;2023-11-21T02:07:57;48.75;;;20.52;;
23181;SDS011;11759;51.282;6.642;2023-11-21T02:10:24;53.53;;;20.65;;
23181;SDS011;11759;51.282;6.642;2023-11-21T02:12:51;49.92;;;21.42;;
23181;SDS011;11759;51.282;6.642;2023-11-21T02:15:18;59.30;;;21.45;;
23181;SDS011;11759;51.282;6.642;2023-11-21T02:17:49;54.33;;;20.83;;
23181;SDS011;11759;51.282;6.642;2023-11-21T02:20:21;46.30;;;21.13;;
23181;SDS011;11759;51.282;6.642;2023-11-21T02:22:50;48.35;;;19.73;;
23181;SDS011;11759;51.282;6.642;2023-11-21T02:25:22;52.92;;;20.88;;
23181;SDS011;11759;51.282;6.642;2023-11-21T02:27:49;41.97;;;20.35;;
23181;SDS011;11759;51.282;6.642;2023-11-21T02:30:15;48.55;;;20.30;;
23181;SDS011;11759;51.282;6.642;2023-11-21T02:32:42;47.63;;;20.00;;
23181;SDS011;11759;51.282;6.642;2023-11-21T02:35:15;49.88;;;20.75;;
23181;SDS011;11759;51.282;6.642;2023-11-21T02:37:42;49.95;;;19.83;;
23181;SDS011;11759;51.282;6.642;2023-11-21T02:40:09;60.35;;;21.90;;
23181;SDS011;11759;51.282;6.642;2023-11-21T02:42:39;48.92;;;20.27;;
23181;SDS011;11759;51.282;6.642;2023-11-21T02:45:07;47.53;;;19.55;;
23181;SDS011;11759;51.282;6.642;2023-11-21T02:47:34;55.83;;;21.35;;
23181;SDS011;11759;51.282;6.642;2023-11-21T02:50:04;59.90;;;20.75;;
23181;SDS011;11759;51.282;6.642;2023-11-21T02:52:34;65.57;;;22.52;;
23181;SDS011;11759;51.282;6.642;2023-11-21T02:55:02;60.22;;;22.23;;
23181;SDS011;11759;51.282;6.642;2023-11-21T02:57:29;58.97;;;21.52;;
23181;SDS011;11759;51.282;6.642;2023-11-21T02:59:55;63.45;;;22.45;;
23181;SDS011;11759;51.282;6.642;2023-11-21T03:02:22;53.88;;;21.27;;
23181;SDS011;11759;51.282;6.642;2023-11-21T03:04:49;59.58;;;22.10;;
23181;SDS011;11759;51.282;6.642;2023-11-21T03:07:16;56.40;;;20.92;;
23181;SDS011;11759;51.282;6.642;2023-11-21T03:09:45;65.82;;;21.15;;
23181;SDS011;11759;51.282;6.642;2023-11-21T03:12:12;58.55;;;20.52;;
23181;SDS011;11759;51.282;6.642;2023-11-21T03:14:39;57.88;;;21.30;;
23181;SDS011;11759;51.282;6.642;2023-11-21T03:17:06;53.95;;;20.65;;
23181;SDS011;11759;51.282;6.642;2023-11-21T03:19:33;53.72;;;20.55;;
23181;SDS011;11759;51.282;6.642;2023-11-21T03:21:59;53.38;;;19.67;;
23181;SDS011;11759;51.282;6.642;2023-11-21T03:24:26;58.17;;;21.42;;
23181;SDS011;11759;51.282;6.642;2023-11-21T03:26:53;61.00;;;21.50;;
23181;SDS011;11759;51.282;6.642;2023-11-21T03:29:19;52.47;;;20.05;;
23181;SDS011;11759;51.282;6.642;2023-11-21T03:31:46;60.78;;;21.08;;
23181;SDS011;11759;51.282;6.642;2023-11-21T03:34:23;61.42;;;21.35;;
23181;SDS011;11759;51.282;6.642;2023-11-21T03:36:54;59.30;;;19.85;;
23181;SDS011;11759;51.282;6.642;2023-11-21T03:39:21;58.55;;;20.60;;
23181;SDS011;11759;51.282;6.642;2023-11-21T03:41:48;67.68;;;21.75;;
23181;SDS011;11759;51.282;6.642;2023-11-21T03:44:17;58.05;;;20.95;;
23181;SDS011;11759;51.282;6.642;2023-11-21T03:46:44;57.33;;;20.77;;
23181;SDS011;11759;51.282;6.642;2023-11-21T03:49:11;62.50;;;22.60;;
23181;SDS011;11759;51.282;6.642;2023-11-21T03:51:40;73.28;;;21.90;;
23181;SDS011;11759;51.282;6.642;2023-11-21T03:54:06;67.38;;;22.63;;
23181;SDS011;11759;51.282;6.642;2023-11-21T03:56:33;61.65;;;21.98;;
23181;SDS011;11759;51.282;6.642;2023-11-21T03:59:00;60.13;;;21.55;;
23181;SDS011;11759;51.282;6.642;2023-11-21T04:01:26;67.28;;;21.48;;
23181;SDS011;11759;51.282;6.642;2023-11-21T04:03:53;67.03;;;22.27;;
23181;SDS011;11759;51.282;6.642;2023-11-21T04:06:20;64.72;;;22.73;;
23181;SDS011;11759;51.282;6.642;2023-11-21T04:08:46;58.95;;;22.67;;
23181;SDS011;11759;51.282;6.642;2023-11-21T04:11:14;61.95;;;21.70;;
23181;SDS011;11759;51.282;6.642;2023-11-21T04:13:42;59.20;;;21.50;;
23181;SDS011;11759;51.282;6.642;2023-11-21T04:16:18;55.75;;;21.50;;
23181;SDS011;11759;51.282;6.642;2023-11-21T04:19:31;61.00;;;21.70;;
23181;SDS011;11759;51.282;6.642;2023-11-21T04:21:58;66.60;;;19.40;;
23181;SDS011;11759;51.282;6.642;2023-11-21T04:24:25;60.80;;;21.98;;
23181;SDS011;11759;51.282;6.642;2023-11-21T04:26:52;57.72;;;20.50;;
23181;SDS011;11759;51.282;6.642;2023-11-21T04:29:19;55.03;;;20.60;;
23181;SDS011;11759;51.282;6.642;2023-11-21T04:31:48;60.95;;;20.70;;
23181;SDS011;11759;51.282;6.642;2023-11-21T04:34:15;65.55;;;21.98;;
23181;SDS011;11759;51.282;6.642;2023-11-21T04:36:42;53.85;;;19.88;;
23181;SDS011;11759;51.282;6.642;2023-11-21T04:39:09;61.13;;;20.27;;
23181;SDS011;11759;51.282;6.642;2023-11-21T04:41:36;59.88;;;20.58;;
23181;SDS011;11759;51.282;6.642;2023-11-21T04:44:05;62.33;;;21.80;;
23181;SDS011;11759;51.282;6.642;2023-11-21T04:46:32;75.05;;;23.23;;
23181;SDS011;11759;51.282;6.642;2023-11-21T04:48:59;64.15;;;21.85;;
23181;SDS011;11759;51.282;6.642;2023-11-21T04:51:25;58.10;;;21.10;;
23181;SDS011;11759;51.282;6.642;2023-11-21T04:53:52;68.93;;;21.23;;
23181;SDS011;11759;51.282;6.642;2023-11-21T04:56:19;65.53;;;22.42;;
23181;SDS011;11759;51.282;6.642;2023-11-21T04:58:45;69.60;;;22.67;;
23181;SDS011;11759;51.282;6.642;2023-11-21T05:01:14;65.80;;;22.25;;
23181;SDS011;11759;51.282;6.642;2023-11-21T05:03:41;63.10;;;22.30;;
23181;SDS011;11759;51.282;6.642;2023-11-21T05:06:11;69.13;;;22.13;;
23181;SDS011;11759;51.282;6.642;2023-11-21T05:08:37;72.82;;;23.23;;
23181;SDS011;11759;51.282;6.642;2023-11-21T05:11:04;68.45;;;22.73;;
23181;SDS011;11759;51.282;6.642;2023-11-21T05:13:31;66.80;;;22.50;;
23181;SDS011;11759;51.282;6.642;2023-11-21T05:15:58;68.75;;;24.08;;
23181;SDS011;11759;51.282;6.642;2023-11-21T05:18:25;74.43;;;22.88;;
23181;SDS011;11759;51.282;6.642;2023-11-21T05:20:57;72.22;;;23.27;;
23181;SDS011;11759;51.282;6.642;2023-11-21T05:23:24;66.78;;;22.90;;
23181;SDS011;11759;51.282;6.642;2023-11-21T05:25:51;61.90;;;21.85;;
23181;SDS011;11759;51.282;6.642;2023-11-21T05:28:18;65.78;;;22.90;;
23181;SDS011;11759;51.282;6.642;2023-11-21T05:30:44;75.30;;;22.77;;
23181;SDS011;11759;51.282;6.642;2023-11-21T05:33:11;64.30;;;21.02;;
23181;SDS011;11759;51.282;6.642;2023-11-21T05:35:38;77.00;;;23.63;;
23181;SDS011;11759;51.282;6.642;2023-11-21T05:38:04;68.97;;;23.02;;
23181;SDS011;11759;51.282;6.642;2023-11-21T05:40:31;77.25;;;22.85;;
23181;SDS011;11759;51.282;6.642;2023-11-21T05:42:58;77.32;;;23.10;;
23181;SDS011;11759;51.282;6.642;2023-11-21T05:45:25;62.47;;;22.30;;
23181;SDS011;11759;51.282;6.642;2023-11-21T05:47:52;71.88;;;21.58;;
23181;SDS011;11759;51.282;6.642;2023-11-21T05:50:18;73.20;;;22.35;;
23181;SDS011;11759;51.282;6.642;2023-11-21T05:52:46;67.93;;;23.00;;
23181;SDS011;11759;51.282;6.642;2023-11-21T05:55:13;73.30;;;23.67;;
23181;SDS011;11759;51.282;6.642;2023-11-21T05:57:40;75.95;;;23.90;;
23181;SDS011;11759;51.282;6.642;2023-11-21T06:00:14;79.15;;;26.58;;
23181;SDS011;11759;51.282;6.642;2023-11-21T06:02:47;86.88;;;23.80;;
23181;SDS011;11759;51.282;6.642;2023-11-21T06:05:17;81.15;;;24.80;;
23181;SDS011;11759;51.282;6.642;2023-11-21T06:07:44;82.63;;;24.63;;
23181;SDS011;11759;51.282;6.642;2023-11-21T06:10:14;76.43;;;23.90;;
23181;SDS011;11759;51.282;6.642;2023-11-21T06:12:41;78.93;;;23.25;;
23181;SDS011;11759;51.282;6.642;2023-11-21T06:15:09;87.25;;;24.45;;
23181;SDS011;11759;51.282;6.642;2023-11-21T06:17:40;84.43;;;21.95;;
23181;SDS011;11759;51.282;6.642;2023-11-21T06:20:08;74.75;;;21.33;;
23181;SDS011;11759;51.282;6.642;2023-11-21T06:22:37;67.38;;;19.10;;
23181;SDS011;11759;51.282;6.642;2023-11-21T06:25:08;72.13;;;18.33;;
23181;SDS011;11759;51.282;6.642;2023-11-21T06:30:06;71.85;;;17.98;;
23181;SDS011;11759;51.282;6.642;2023-11-21T06:32:35;84.13;;;20.40;;
23181;SDS011;11759;51.282;6.642;2023-11-21T06:35:03;84.90;;;21.23;;
23181;SDS011;11759;51.282;6.642;2023-11-21T06:37:30;83.53;;;21.15;;
23181;SDS011;11759;51.282;6.642;2023-11-21T06:39:58;91.35;;;23.02;;
23181;SDS011;11759;51.282;6.642;2023-11-21T06:42:26;95.93;;;23.67;;
23181;SDS011;11759;51.282;6.642;2023-11-21T06:44:53;94.93;;;24.50;;
23181;SDS011;11759;51.282;6.642;2023-11-21T06:47:20;92.07;;;26.23;;
23181;SDS011;11759;51.282;6.642;2023-11-21T06:49:47;102.65;;;26.30;;
23181;SDS011;11759;51.282;6.642;2023-11-21T06:52:19;98.82;;;26.95;;
23181;SDS011;11759;51.282;6.642;2023-11-21T06:54:47;111.13;;;28.40;;
23181;SDS011;11759;51.282;6.642;2023-11-21T06:57:14;123.57;;;29.67;;
23181;SDS011;11759;51.282;6.642;2023-11-21T06:59:40;121.38;;;29.60;;
23181;SDS011;11759;51.282;6.642;2023-11-21T07:02:07;112.13;;;31.15;;
23181;SDS011;11759;51.282;6.642;2023-11-21T07:04:34;118.10;;;29.65;;
23181;SDS011;11759;51.282;6.642;2023-11-21T07:07:02;125.80;;;29.83;;
23181;SDS011;11759;51.282;6.642;2023-11-21T07:09:30;115.68;;;30.08;;
23181;SDS011;11759;51.282;6.642;2023-11-21T07:11:57;111.22;;;28.33;;
23181;SDS011;11759;51.282;6.642;2023-11-21T07:14:24;117.32;;;29.38;;
23181;SDS011;11759;51.282;6.642;2023-11-21T07:16:50;105.70;;;29.65;;
23181;SDS011;11759;51.282;6.642;2023-11-21T07:19:19;102.95;;;29.52;;
23181;SDS011;11759;51.282;6.642;2023-11-21T07:21:47;104.63;;;29.50;;
23181;SDS011;11759;51.282;6.642;2023-11-21T07:24:16;103.35;;;30.15;;
23181;SDS011;11759;51.282;6.642;2023-11-21T07:26:43;99.15;;;29.05;;
23181;SDS011;11759;51.282;6.642;2023-11-21T07:29:10;99.75;;;29.60;;
23181;SDS011;11759;51.282;6.642;2023-11-21T07:31:38;91.78;;;28.67;;
23181;SDS011;11759;51.282;6.642;2023-11-21T07:34:05;109.45;;;30.75;;
23181;SDS011;11759;51.282;6.642;2023-11-21T07:36:32;97.43;;;30.48;;
23181;SDS011;11759;51.282;6.642;2023-11-21T07:38:59;116.10;;;30.90;;
23181;SDS011;11759;51.282;6.642;2023-11-21T07:41:25;102.35;;;30.67;;
23181;SDS011;11759;51.282;6.642;2023-11-21T07:43:57;115.18;;;31.92;;
23181;SDS011;11759;51.282;6.642;2023-11-21T07:46:26;104.53;;;31.52;;
23181;SDS011;11759;51.282;6.642;2023-11-21T07:48:53;113.35;;;32.42;;
23181;SDS011;11759;51.282;6.642;2023-11-21T07:51:21;118.35;;;34.03;;
23181;SDS011;11759;51.282;6.642;2023-11-21T07:53:48;118.75;;;34.03;;
23181;SDS011;11759;51.282;6.642;2023-11-21T07:56:15;98.97;;;32.08;;
23181;SDS011;11759;51.282;6.642;2023-11-21T07:58:42;117.55;;;32.83;;
23181;SDS011;11759;51.282;6.642;2023-11-21T08:01:09;127.47;;;35.10;;
23181;SDS011;11759;51.282;6.642;2023-11-21T08:03:35;122.63;;;36.67;;
23181;SDS011;11759;51.282;6.642;2023-11-21T08:06:02;105.72;;;30.85;;
23181;SDS011;11759;51.282;6.642;2023-11-21T08:08:31;103.35;;;30.83;;
23181;SDS011;11759;51.282;6.642;2023-11-21T08:10:58;111.95;;;31.85;;
23181;SDS011;11759;51.282;6.642;2023-11-21T08:13:28;93.25;;;29.73;;
23181;SDS011;11759;51.282;6.642;2023-11-21T08:15:57;93.80;;;27.77;;
23181;SDS011;11759;51.282;6.642;2023-11-21T08:18:31;89.85;;;30.00;;
23181;SDS011;11759;51.282;6.642;2023-11-21T08:20:58;94.30;;;28.15;;
23181;SDS011;11759;51.282;6.642;2023-11-21T08:23:25;89.38;;;27.42;;
23181;SDS011;11759;51.282;6.642;2023-11-21T08:25:52;80.47;;;26.58;;
23181;SDS011;11759;51.282;6.642;2023-11-21T08:28:19;87.85;;;27.90;;
23181;SDS011;11759;51.282;6.642;2023-11-21T08:30:49;85.57;;;29.00;;
23181;SDS011;11759;51.282;6.642;2023-11-21T08:33:15;95.25;;;27.40;;
23181;SDS011;11759;51.282;6.642;2023-11-21T08:35:42;88.55;;;29.15;;
23181;SDS011;11759;51.282;6.642;2023-11-21T08:38:09;79.85;;;28.65;;
23181;SDS011;11759;51.282;6.642;2023-11-21T08:40:36;91.07;;;28.70;;
23181;SDS011;11759;51.282;6.642;2023-11-21T08:43:03;93.68;;;28.70;;
23181;SDS011;11759;51.282;6.642;2023-11-21T08:45:31;87.43;;;28.48;;
23181;SDS011;11759;51.282;6.642;2023-11-21T08:48:00;98.68;;;28.83;;
23181;SDS011;11759;51.282;6.642;2023-11-21T08:50:28;84.22;;;27.80;;
23181;SDS011;11759;51.282;6.642;2023-11-21T08:52:55;88.63;;;27.52;;
23181;SDS011;11759;51.282;6.642;2023-11-21T08:55:22;96.60;;;31.10;;
23181;SDS011;11759;51.282;6.642;2023-11-21T08:57:48;90.28;;;29.63;;
23181;SDS011;11759;51.282;6.642;2023-11-21T09:00:16;78.07;;;27.20;;
23181;SDS011;11759;51.282;6.642;2023-11-21T09:02:45;85.00;;;27.58;;
23181;SDS011;11759;51.282;6.642;2023-11-21T09:05:13;67.43;;;24.60;;
23181;SDS011;11759;51.282;6.642;2023-11-21T09:07:41;75.47;;;26.08;;
23181;SDS011;11759;51.282;6.642;2023-11-21T09:10:08;87.93;;;27.25;;
23181;SDS011;11759;51.282;6.642;2023-11-21T09:12:36;74.13;;;24.92;;
23181;SDS011;11759;51.282;6.642;2023-11-21T09:15:08;78.00;;;26.38;;
23181;SDS011;11759;51.282;6.642;2023-11-21T09:17:36;56.40;;;17.98;;
23181;SDS011;11759;51.282;6.642;2023-11-21T09:20:04;67.50;;;25.98;;
23181;SDS011;11759;51.282;6.642;2023-11-21T09:22:32;79.40;;;26.90;;
23181;SDS011;11759;51.282;6.642;2023-11-21T09:24:59;77.13;;;27.05;;
23181;SDS011;11759;51.282;6.642;2023-11-21T09:27:26;73.00;;;26.75;;
23181;SDS011;11759;51.282;6.642;2023-11-21T09:29:53;77.85;;;27.50;;
23181;SDS011;11759;51.282;6.642;2023-11-21T09:32:20;76.13;;;26.58;;
23181;SDS011;11759;51.282;6.642;2023-11-21T09:34:48;77.65;;;26.92;;
23181;SDS011;11759;51.282;6.642;2023-11-21T09:37:16;76.13;;;26.70;;
23181;SDS011;11759;51.282;6.642;2023-11-21T09:39:43;73.97;;;24.50;;
23181;SDS011;11759;51.282;6.642;2023-11-21T09:42:13;73.97;;;24.27;;
23181;SDS011;11759;51.282;6.642;2023-11-21T09:44:45;66.50;;;25.10;;
23181;SDS011;11759;51.282;6.642;2023-11-21T09:47:15;75.60;;;25.65;;
23181;SDS011;11759;51.282;6.642;2023-11-21T09:49:47;75.72;;;24.63;;
23181;SDS011;11759;51.282;6.642;2023-11-21T09:52:49;75.32;;;25.15;;
23181;SDS011;11759;51.282;6.642;2023-11-21T09:55:11;74.70;;;25.58;;
23181;SDS011;11759;51.282;6.642;2023-11-21T09:57:41;73.43;;;26.25;;
23181;SDS011;11759;51.282;6.642;2023-11-21T10:00:08;61.17;;;23.92;;
23181;SDS011;11759;51.282;6.642;2023-11-21T10:02:38;65.93;;;24.42;;
23181;SDS011;11759;51.282;6.642;2023-11-21T10:05:07;62.10;;;22.90;;
23181;SDS011;11759;51.282;6.642;2023-11-21T10:07:36;63.92;;;24.33;;
23181;SDS011;11759;51.282;6.642;2023-11-21T10:10:03;65.45;;;25.35;;
23181;SDS011;11759;51.282;6.642;2023-11-21T10:12:31;68.90;;;25.02;;
23181;SDS011;11759;51.282;6.642;2023-11-21T10:14:58;57.42;;;21.58;;
23181;SDS011;11759;51.282;6.642;2023-11-21T10:17:29;68.50;;;22.50;;
23181;SDS011;11759;51.282;6.642;2023-11-21T10:19:58;56.05;;;22.95;;
23181;SDS011;11759;51.282;6.642;2023-11-21T10:22:25;64.75;;;23.45;;
23181;SDS011;11759;51.282;6.642;2023-11-21T10:24:53;57.55;;;22.77;;
23181;SDS011;11759;51.282;6.642;2023-11-21T10:27:20;66.15;;;23.95;;
23181;SDS011;11759;51.282;6.642;2023-11-21T10:29:47;48.70;;;21.48;;
23181;SDS011;11759;51.282;6.642;2023-11-21T10:32:13;63.63;;;23.42;;
23181;SDS011;11759;51.282;6.642;2023-11-21T10:34:40;51.20;;;21.35;;
23181;SDS011;11759;51.282;6.642;2023-11-21T10:37:11;57.83;;;22.55;;
23181;SDS011;11759;51.282;6.642;2023-11-21T10:39:38;63.92;;;22.85;;
23181;SDS011;11759;51.282;6.642;2023-11-21T10:42:07;57.85;;;21.75;;
23181;SDS011;11759;51.282;6.642;2023-11-21T10:44:35;55.25;;;22.35;;
23181;SDS011;11759;51.282;6.642;2023-11-21T10:47:02;57.70;;;21.83;;
23181;SDS011;11759;51.282;6.642;2023-11-21T10:49:29;57.83;;;22.02;;
23181;SDS011;11759;51.282;6.642;2023-11-21T10:51:59;55.72;;;21.63;;
23181;SDS011;11759;51.282;6.642;2023-11-21T10:54:26;56.08;;;21.05;;
23181;SDS011;11759;51.282;6.642;2023-11-21T10:56:53;53.17;;;20.80;;
23181;SDS011;11759;51.282;6.642;2023-11-21T10:59:23;54.70;;;21.63;;
23181;SDS011;11759;51.282;6.642;2023-11-21T11:01:51;53.78;;;21.40;;
23181;SDS011;11759;51.282;6.642;2023-11-21T11:04:22;52.88;;;20.35;;
23181;SDS011;11759;51.282;6.642;2023-11-21T11:06:57;60.40;;;21.73;;
23181;SDS011;11759;51.282;6.642;2023-11-21T11:09:31;55.28;;;20.92;;
23181;SDS011;11759;51.282;6.642;2023-11-21T11:12:02;67.20;;;22.55;;
23181;SDS011;11759;51.282;6.642;2023-11-21T11:14:31;55.75;;;22.02;;
23181;SDS011;11759;51.282;6.642;2023-11-21T11:16:58;55.83;;;23.17;;
23181;SDS011;11759;51.282;6.642;2023-11-21T11:19:26;52.70;;;22.63;;
23181;SDS011;11759;51.282;6.642;2023-11-21T11:21:58;70.57;;;24.98;;
23181;SDS011;11759;51.282;6.642;2023-11-21T11:34:01;60.35;;;22.92;;
23181;SDS011;11759;51.282;6.642;2023-11-21T11:36:36;48.55;;;21.77;;
23181;SDS011;11759;51.282;6.642;2023-11-21T11:39:26;54.47;;;22.63;;
23181;SDS011;11759;51.282;6.642;2023-11-21T11:42:02;57.22;;;21.98;;
23181;SDS011;11759;51.282;6.642;2023-11-21T11:47:13;52.85;;;20.90;;
23181;SDS011;11759;51.282;6.642;2023-11-21T11:52:40;56.03;;;22.48;;
23181;SDS011;11759;51.282;6.642;2023-11-21T11:55:08;60.67;;;22.73;;
23181;SDS011;11759;51.282;6.642;2023-11-21T11:57:37;51.72;;;21.90;;
23181;SDS011;11759;51.282;6.642;2023-11-21T12:02:50;53.40;;;21.70;;
23181;SDS011;11759;51.282;6.642;2023-11-21T12:05:19;47.38;;;19.33;;
23181;SDS011;11759;51.282;6.642;2023-11-21T12:10:18;48.47;;;18.13;;
23181;SDS011;11759;51.282;6.642;2023-11-21T12:12:51;48.17;;;18.95;;
23181;SDS011;11759;51.282;6.642;2023-11-21T12:15:19;51.50;;;18.45;;
23181;SDS011;11759;51.282;6.642;2023-11-21T12:17:46;45.45;;;18.13;;
23181;SDS011;11759;51.282;6.642;2023-11-21T12:20:13;45.92;;;17.05;;
23181;SDS011;11759;51.282;6.642;2023-11-21T12:22:42;56.03;;;17.83;;
23181;SDS011;11759;51.282;6.642;2023-11-21T12:25:10;40.20;;;16.98;;
23181;SDS011;11759;51.282;6.642;2023-11-21T12:27:43;44.10;;;17.13;;
23181;SDS011;11759;51.282;6.642;2023-11-21T12:30:11;41.17;;;15.90;;
23181;SDS011;11759;51.282;6.642;2023-11-21T12:32:43;49.38;;;16.08;;
23181;SDS011;11759;51.282;6.642;2023-11-21T12:35:13;46.35;;;17.48;;
23181;SDS011;11759;51.282;6.642;2023-11-21T12:37:45;42.97;;;18.23;;
23181;SDS011;11759;51.282;6.642;2023-11-21T12:40:14;51.13;;;18.15;;
23181;SDS011;11759;51.282;6.642;2023-11-21T12:42:42;44.65;;;17.42;;
23181;SDS011;11759;51.282;6.642;2023-11-21T12:47:43;59.78;;;20.55;;
23181;SDS011;11759;51.282;6.642;2023-11-21T12:50:10;47.92;;;17.08;;
23181;SDS011;11759;51.282;6.642;2023-11-21T12:52:41;43.75;;;16.15;;
23181;SDS011;11759;51.282;6.642;2023-11-21T12:55:15;38.58;;;15.85;;
23181;SDS011;11759;51.282;6.642;2023-11-21T12:57:53;39.92;;;15.88;;
23181;SDS011;11759;51.282;6.642;2023-11-21T13:00:28;39.28;;;16.08;;
23181;SDS011;11759;51.282;6.642;2023-11-21T13:02:58;36.92;;;15.57;;
23181;SDS011;11759;51.282;6.642;2023-11-21T13:07:53;42.65;;;15.65;;
23181;SDS011;11759;51.282;6.642;2023-11-21T13:10:22;36.78;;;15.18;;
23181;SDS011;11759;51.282;6.642;2023-11-21T13:12:57;44.85;;;16.42;;
23181;SDS011;11759;51.282;6.642;2023-11-21T13:15:25;36.65;;;16.10;;
23181;SDS011;11759;51.282;6.642;2023-11-21T13:17:52;40.85;;;16.38;;
23181;SDS011;11759;51.282;6.642;2023-11-21T13:20:20;42.38;;;16.63;;
23181;SDS011;11759;51.282;6.642;2023-11-21T13:23:07;44.20;;;17.10;;
23181;SDS011;11759;51.282;6.642;2023-11-21T13:25:34;44.47;;;17.90;;
23181;SDS011;11759;51.282;6.642;2023-11-21T13:28:03;41.97;;;17.20;;
23181;SDS011;11759;51.282;6.642;2023-11-21T13:30:30;43.67;;;18.42;;
23181;SDS011;11759;51.282;6.642;2023-11-21T13:33:00;43.38;;;18.55;;
23181;SDS011;11759;51.282;6.642;2023-11-21T13:35:28;44.90;;;18.67;;
23181;SDS011;11759;51.282;6.642;2023-11-21T13:38:04;42.88;;;18.55;;
23181;SDS011;11759;51.282;6.642;2023-11-21T13:40:33;58.53;;;21.02;;
23181;SDS011;11759;51.282;6.642;2023-11-21T13:43:06;49.65;;;19.48;;
23181;SDS011;11759;51.282;6.642;2023-11-21T13:45:39;57.33;;;19.90;;
23181;SDS011;11759;51.282;6.642;2023-11-21T13:48:10;53.65;;;19.63;;
23181;SDS011;11759;51.282;6.642;2023-11-21T13:50:37;50.60;;;19.52;;
23181;SDS011;11759;51.282;6.642;2023-11-21T13:53:03;52.75;;;19.00;;
23181;SDS011;11759;51.282;6.642;2023-11-21T13:55:42;52.80;;;19.38;;
23181;SDS011;11759;51.282;6.642;2023-11-21T13:58:09;58.88;;;20.70;;
23181;SDS011;11759;51.282;6.642;2023-11-21T14:00:39;40.53;;;16.45;;
23181;SDS011;11759;51.282;6.642;2023-11-21T14:03:14;40.38;;;16.88;;
23181;SDS011;11759;51.282;6.642;2023-11-21T14:06:08;38.30;;;14.68;;
23181;SDS011;11759;51.282;6.642;2023-11-21T14:08:40;36.88;;;16.77;;
23181;SDS011;11759;51.282;6.642;2023-11-21T14:11:07;44.42;;;15.95;;
23181;SDS011;11759;51.282;6.642;2023-11-21T14:13:37;46.90;;;15.38;;
23181;SDS011;11759;51.282;6.642;2023-11-21T14:16:05;35.47;;;14.32;;
23181;SDS011;11759;51.282;6.642;2023-11-21T14:18:33;42.78;;;16.20;;
23181;SDS011;11759;51.282;6.642;2023-11-21T14:21:05;38.35;;;13.82;;
23181;SDS011;11759;51.282;6.642;2023-11-21T14:23:36;40.15;;;14.45;;
23181;SDS011;11759;51.282;6.642;2023-11-21T14:26:04;39.83;;;13.73;;
23181;SDS011;11759;51.282;6.642;2023-11-21T14:28:32;32.88;;;13.15;;
23181;SDS011;11759;51.282;6.642;2023-11-21T14:31:01;32.38;;;13.52;;
23181;SDS011;11759;51.282;6.642;2023-11-21T14:33:29;33.92;;;13.98;;
23181;SDS011;11759;51.282;6.642;2023-11-21T14:35:56;36.25;;;13.18;;
23181;SDS011;11759;51.282;6.642;2023-11-21T14:38:23;33.08;;;13.25;;
23181;SDS011;11759;51.282;6.642;2023-11-21T14:40:50;36.53;;;13.40;;
23181;SDS011;11759;51.282;6.642;2023-11-21T14:43:17;33.80;;;14.20;;
23181;SDS011;11759;51.282;6.642;2023-11-21T14:45:45;36.97;;;16.15;;
23181;SDS011;11759;51.282;6.642;2023-11-21T14:48:12;35.38;;;14.57;;
23181;SDS011;11759;51.282;6.642;2023-11-21T14:50:55;46.40;;;17.45;;
23181;SDS011;11759;51.282;6.642;2023-11-21T14:53:42;39.53;;;16.00;;
23181;SDS011;11759;51.282;6.642;2023-11-21T14:56:12;39.75;;;16.52;;
23181;SDS011;11759;51.282;6.642;2023-11-21T14:58:47;40.47;;;17.10;;